sensor_id;sensor_type;location;lat;lon;timestamp;temperature;humidity
53274;DHT22;39163;52.696;6.758;2022-09-12T11:34:10;26.30;99.90
53274;DHT22;39163;52.696;6.758;2022-09-12T11:39:46;25.90;97.30
53274;DHT22;39163;52.696;6.758;2022-09-12T11:42:35;25.80;98.50
53274;DHT22;39163;52.696;6.758;2022-09-12T11:45:23;25.90;98.30
53274;DHT22;39163;52.696;6.758;2022-09-12T11:48:03;26.10;97.90
53274;DHT22;39163;52.696;6.758;2022-09-12T11:53:25;26.10;97.80
53274;DHT22;39163;52.696;6.758;2022-09-12T16:04:38;25.30;93.40
53274;DHT22;39163;52.696;6.758;2022-09-12T16:07:05;25.20;93.30
53274;DHT22;39163;52.696;6.758;2022-09-12T16:09:30;25.10;92.90
53274;DHT22;39163;52.696;6.758;2022-09-12T16:12:01;24.90;92.90
53274;DHT22;39163;52.696;6.758;2022-09-12T16:14:27;24.70;92.60
53274;DHT22;39163;52.696;6.758;2022-09-12T16:16:53;24.50;92.60
53274;DHT22;39163;52.696;6.758;2022-09-12T16:19:19;24.30;92.80
53274;DHT22;39163;52.696;6.758;2022-09-12T16:21:45;24.20;93.00
53274;DHT22;39163;52.696;6.758;2022-09-12T16:24:11;24.10;93.20
53274;DHT22;39163;52.696;6.758;2022-09-12T16:26:37;24.10;93.40
53274;DHT22;39163;52.696;6.758;2022-09-12T16:29:03;24.00;93.70
53274;DHT22;39163;52.696;6.758;2022-09-12T16:31:28;24.00;94.10
53274;DHT22;39163;52.696;6.758;2022-09-12T16:33:55;24.00;94.40
53274;DHT22;39163;52.696;6.758;2022-09-12T16:36:23;24.00;94.50
53274;DHT22;39163;52.696;6.758;2022-09-12T16:38:50;23.90;94.70
53274;DHT22;39163;52.696;6.758;2022-09-12T16:41:18;23.80;94.10
53274;DHT22;39163;52.696;6.758;2022-09-12T16:43:44;23.70;94.40
53274;DHT22;39163;52.696;6.758;2022-09-12T16:46:19;23.70;94.80
53274;DHT22;39163;52.696;6.758;2022-09-12T16:48:50;23.70;94.60
53274;DHT22;39163;52.696;6.758;2022-09-12T16:51:21;23.60;94.70
53274;DHT22;39163;52.696;6.758;2022-09-12T16:53:48;23.60;94.70
53274;DHT22;39163;52.696;6.758;2022-09-12T16:56:14;23.50;94.90
53274;DHT22;39163;52.696;6.758;2022-09-12T16:58:44;23.50;95.00
53274;DHT22;39163;52.696;6.758;2022-09-12T17:01:20;23.50;95.50
53274;DHT22;39163;52.696;6.758;2022-09-12T17:03:53;23.40;95.40
53274;DHT22;39163;52.696;6.758;2022-09-12T17:06:20;23.30;95.30
53274;DHT22;39163;52.696;6.758;2022-09-12T17:08:51;23.30;95.60
53274;DHT22;39163;52.696;6.758;2022-09-12T17:11:22;23.20;95.70
53274;DHT22;39163;52.696;6.758;2022-09-12T17:13:54;23.10;96.00
53274;DHT22;39163;52.696;6.758;2022-09-12T17:16:49;23.00;96.00
53274;DHT22;39163;52.696;6.758;2022-09-12T17:19:37;23.00;96.50
53274;DHT22;39163;52.696;6.758;2022-09-12T17:25:20;22.80;96.50
53274;DHT22;39163;52.696;6.758;2022-09-12T23:23:47;18.80;99.90
53274;DHT22;39163;52.696;6.758;2022-09-12T23:26:54;18.80;99.90
53274;DHT22;39163;52.696;6.758;2022-09-12T23:50:04;18.40;99.90
